Iwanui, Waitara Historical Data
 
Daily Summary for April 23, 2018 Units:  Metric    English   Both
« Previous Day
Next Day »
Daily Weekly Monthly Yearly Custom
  Current: High: Low: Average:
Temperature: 13.6 °C 17.5 °C 13.6 °C 14.9 °C
Dew Point: 11.3 °C 11.4 °C 9.7 °C 10.6 °C
Humidity: 86% 86% 64% 75%
Wind Speed: 0.0km/h 8.7km/h 0.0km/h 2.6km/h
Wind Gust: 1.1km/h 20.9km/h - -
WindCalm - - WSW
Pressure: 1014.4 hPa 1014.4 hPa 1013.4 hPa -
Precipitation: 0.0 mm      
Historical Graphs
 
 
Tabular Data for April 23, 2018
Time Temperature Dew Point Pressure Wind Wind Speed Wind Gust Humidity Rainfall Rate (Hourly)
00:04 17.5 °C 10.6 °C 1013.4 hPa SW 1.1 km/h 8.7 km/h 64% 0.0 mm
00:09 17.4 °C 10.8 °C 1013.4 hPa SW 2.6 km/h 7.2 km/h 65% 0.0 mm
00:14 17.3 °C 10.7 °C 1013.4 hPa WSW 3.5 km/h 9.7 km/h 65% 0.0 mm
00:19 17.2 °C 10.8 °C 1013.4 hPa WSW 3.5 km/h 9.7 km/h 66% 0.0 mm
00:24 17.0 °C 10.6 °C 1013.4 hPa SW 2.6 km/h 8.7 km/h 66% 0.0 mm
00:29 17.0 °C 11.1 °C 1013.4 hPa WSW 1.1 km/h 8.7 km/h 68% 0.0 mm
00:34 16.9 °C 10.9 °C 1013.4 hPa WSW 2.6 km/h 8.7 km/h 68% 0.0 mm
00:39 16.8 °C 11.1 °C 1013.4 hPa WSW 5.0 km/h 8.7 km/h 69% 0.0 mm
00:44 16.6 °C 10.9 °C 1013.4 hPa WSW 1.1 km/h 7.2 km/h 69% 0.0 mm
00:50 16.6 °C 11.1 °C 1013.4 hPa WSW 2.6 km/h 7.2 km/h 70% 0.0 mm
00:55 16.5 °C 11.0 °C 1013.4 hPa SW 2.6 km/h 6.1 km/h 70% 0.0 mm
01:00 16.5 °C 11.2 °C 1013.4 hPa SW 6.1 km/h 8.7 km/h 71% 0.0 mm
01:05 16.3 °C 11.1 °C 1013.4 hPa SW 5.0 km/h 8.7 km/h 71% 0.0 mm
01:10 16.2 °C 10.9 °C 1013.4 hPa WSW 6.1 km/h 9.7 km/h 71% 0.0 mm
01:15 15.9 °C 10.9 °C 1013.4 hPa WSW 6.1 km/h 12.2 km/h 72% 0.0 mm
01:20 15.8 °C 10.8 °C 1013.8 hPa WSW 3.5 km/h 12.2 km/h 72% 0.0 mm
01:25 15.7 °C 10.7 °C 1013.4 hPa WSW 8.7 km/h 13.4 km/h 72% 0.0 mm
01:30 15.7 °C 10.7 °C 1013.8 hPa West 6.1 km/h 13.4 km/h 72% 0.0 mm
01:35 15.2 °C 10.2 °C 1013.8 hPa West 7.2 km/h 12.2 km/h 72% 0.0 mm
01:40 15.2 °C 10.0 °C 1013.8 hPa West 2.6 km/h 12.2 km/h 71% 0.0 mm
01:45 15.2 °C 10.0 °C 1013.8 hPa West 5.0 km/h 12.2 km/h 71% 0.0 mm
01:50 15.2 °C 10.0 °C 1013.8 hPa West 7.2 km/h 13.4 km/h 71% 0.0 mm
01:56 15.2 °C 10.2 °C 1013.8 hPa West 7.2 km/h 13.4 km/h 72% 0.0 mm
02:01 15.1 °C 10.1 °C 1013.8 hPa West 5.0 km/h 9.7 km/h 72% 0.0 mm
02:06 15.1 °C 10.1 °C 1013.8 hPa West 3.5 km/h 9.7 km/h 72% 0.0 mm
02:11 15.1 °C 10.1 °C 1013.8 hPa West 2.6 km/h 9.7 km/h 72% 0.0 mm
02:16 15.0 °C 10.0 °C 1013.8 hPa WNW 6.1 km/h 12.2 km/h 72% 0.0 mm
02:21 15.0 °C 10.2 °C 1013.8 hPa West 2.6 km/h 12.2 km/h 73% 0.0 mm
02:26 15.0 °C 10.2 °C 1013.8 hPa WNW 3.5 km/h 8.7 km/h 73% 0.0 mm
02:31 14.9 °C 10.3 °C 1013.8 hPa WNW 2.6 km/h 7.2 km/h 74% 0.0 mm
02:36 14.9 °C 10.3 °C 1013.8 hPa West 5.0 km/h 7.2 km/h 74% 0.0 mm
02:41 14.8 °C 10.2 °C 1013.8 hPa West 3.5 km/h 9.7 km/h 74% 0.0 mm
02:46 14.8 °C 10.0 °C 1014.1 hPa WSW 3.5 km/h 9.7 km/h 73% 0.0 mm
02:51 14.7 °C 9.9 °C 1013.8 hPa WSW 2.6 km/h 7.2 km/h 73% 0.0 mm
02:56 14.7 °C 9.9 °C 1014.1 hPa West 2.6 km/h 7.2 km/h 73% 0.0 mm
03:01 14.6 °C 9.8 °C 1014.1 hPa WSW 2.6 km/h 7.2 km/h 73% 0.0 mm
03:06 14.6 °C 9.8 °C 1014.1 hPa SW 1.1 km/h 7.2 km/h 73% 0.0 mm
03:11 14.5 °C 9.7 °C 1014.4 hPa SW 2.6 km/h 5.0 km/h 73% 0.0 mm
03:16 14.5 °C 9.9 °C 1014.4 hPa SW 2.6 km/h 5.0 km/h 74% 0.0 mm
03:21 14.5 °C 9.9 °C 1014.1 hPa WSW 1.1 km/h 6.1 km/h 74% 0.0 mm
03:26 14.5 °C 9.9 °C 1014.4 hPa Calm   6.1 km/h 74% 0.0 mm
03:31 14.4 °C 9.8 °C 1014.4 hPa SW 2.6 km/h 5.0 km/h 74% 0.0 mm
03:36 14.4 °C 10.1 °C 1014.1 hPa Calm   5.0 km/h 75% 0.0 mm
03:41 14.4 °C 10.1 °C 1014.1 hPa Calm   3.5 km/h 75% 0.0 mm
03:46 14.3 °C 9.9 °C 1014.4 hPa Calm   2.6 km/h 75% 0.0 mm
03:51 14.3 °C 10.1 °C 1014.4 hPa Calm   2.6 km/h 76% 0.0 mm
03:56 14.2 °C 10.1 °C 1014.4 hPa Calm   2.6 km/h 76% 0.0 mm
04:01 14.2 °C 10.1 °C 1014.4 hPa Calm   1.1 km/h 76% 0.0 mm
04:06 14.2 °C 10.2 °C 1014.4 hPa Calm   2.6 km/h 77% 0.0 mm
04:11 14.2 °C 10.4 °C 1014.4 hPa WSW 5.0 km/h 20.9 km/h 78% 0.0 mm
04:16 14.2 °C 10.8 °C 1014.4 hPa SW 5.0 km/h 20.9 km/h 80% 0.0 mm
04:21 14.0 °C 10.8 °C 1014.4 hPa SSW 3.5 km/h 13.4 km/h 81% 0.0 mm
04:26 13.8 °C 11.2 °C 1014.1 hPa SSW 1.1 km/h 12.2 km/h 84% 0.0 mm
04:31 13.7 °C 11.1 °C 1014.4 hPa SSW 3.5 km/h 9.7 km/h 84% 0.0 mm
04:36 13.6 °C 11.1 °C 1014.1 hPa SSW 2.6 km/h 7.2 km/h 85% 0.0 mm
04:42 13.6 °C 11.1 °C 1014.1 hPa Calm   7.2 km/h 85% 0.0 mm
04:47 13.7 °C 11.4 °C 1014.4 hPa Calm   5.0 km/h 86% 0.0 mm
04:49 13.7 °C 11.4 °C 1014.4 hPa Calm   3.5 km/h 86% 0.0 mm
04:50 13.7 °C 11.4 °C 1014.4 hPa Calm   1.1 km/h 86% 0.0 mm
04:52 13.7 °C 11.4 °C 1014.4 hPa Calm   1.1 km/h 86% 0.0 mm
04:53 13.7 °C 11.4 °C 1014.4 hPa Calm   1.1 km/h 86% 0.0 mm
04:54 13.7 °C 11.4 °C 1014.4 hPa Calm   1.1 km/h 86% 0.0 mm
04:55 13.6 °C 11.3 °C 1014.4 hPa Calm   1.1 km/h 86% 0.0 mm
04:56 13.6 °C 11.3 °C 1014.4 hPa Calm   1.1 km/h 86% 0.0 mm
04:58 13.6 °C 11.3 °C 1014.4 hPa Calm   1.1 km/h 86% 0.0 mm
04:59 13.6 °C 11.3 °C 1014.4 hPa Calm   1.1 km/h 86% 0.0 mm
05:00 13.6 °C 11.3 °C 1014.4 hPa Calm   1.1 km/h 86% 0.0 mm
05:03 13.6 °C 11.3 °C 1014.4 hPa Calm   1.1 km/h 86% 0.0 mm
Waitara, Taranaki. New Zealand Historic Data
Compliments of Weather Underground - 2 mb